sensor_id;sensor_type;location;lat;lon;timestamp;P1;durP1;ratioP1;P2;durP2;ratioP2
46054;SDS011;31788;6.954;-71.872;2023-02-18T00:01:28;9.02;;;2.92;;
46054;SDS011;31788;6.954;-71.872;2023-02-18T00:03:55;6.40;;;2.50;;
46054;SDS011;31788;6.954;-71.872;2023-02-18T00:06:24;6.43;;;2.60;;
46054;SDS011;31788;6.954;-71.872;2023-02-18T00:08:52;4.78;;;2.65;;
46054;SDS011;31788;6.954;-71.872;2023-02-18T00:11:21;7.75;;;2.70;;
46054;SDS011;31788;6.954;-71.872;2023-02-18T00:13:50;5.90;;;2.50;;
46054;SDS011;31788;6.954;-71.872;2023-02-18T00:16:19;6.15;;;2.80;;
46054;SDS011;31788;6.954;-71.872;2023-02-18T00:18:46;6.47;;;3.00;;
46054;SDS011;31788;6.954;-71.872;2023-02-18T00:21:13;7.23;;;2.73;;
46054;SDS011;31788;6.954;-71.872;2023-02-18T00:23:40;5.28;;;2.63;;
46054;SDS011;31788;6.954;-71.872;2023-02-18T00:26:08;4.80;;;2.20;;
46054;SDS011;31788;6.954;-71.872;2023-02-18T00:28:39;5.30;;;2.17;;
46054;SDS011;31788;6.954;-71.872;2023-02-18T00:31:11;4.27;;;2.30;;
46054;SDS011;31788;6.954;-71.872;2023-02-18T00:33:39;4.55;;;2.40;;
46054;SDS011;31788;6.954;-71.872;2023-02-18T00:36:08;3.70;;;2.25;;
46054;SDS011;31788;6.954;-71.872;2023-02-18T00:38:37;3.22;;;1.98;;
46054;SDS011;31788;6.954;-71.872;2023-02-18T00:41:03;3.67;;;2.03;;
46054;SDS011;31788;6.954;-71.872;2023-02-18T00:43:31;4.38;;;2.20;;
46054;SDS011;31788;6.954;-71.872;2023-02-18T00:46:00;4.80;;;2.40;;
46054;SDS011;31788;6.954;-71.872;2023-02-18T00:48:26;5.25;;;2.28;;
46054;SDS011;31788;6.954;-71.872;2023-02-18T00:50:53;7.32;;;2.20;;
46054;SDS011;31788;6.954;-71.872;2023-02-18T00:53:20;6.57;;;2.30;;
46054;SDS011;31788;6.954;-71.872;2023-02-18T00:55:47;5.32;;;2.50;;
46054;SDS011;31788;6.954;-71.872;2023-02-18T00:58:14;5.80;;;2.55;;
46054;SDS011;31788;6.954;-71.872;2023-02-18T01:00:41;6.00;;;2.53;;
46054;SDS011;31788;6.954;-71.872;2023-02-18T01:03:08;4.90;;;2.42;;
46054;SDS011;31788;6.954;-71.872;2023-02-18T01:05:36;6.75;;;2.55;;
46054;SDS011;31788;6.954;-71.872;2023-02-18T01:08:04;4.93;;;2.22;;
46054;SDS011;31788;6.954;-71.872;2023-02-18T01:10:32;6.22;;;2.28;;
46054;SDS011;31788;6.954;-71.872;2023-02-18T01:13:00;8.10;;;2.60;;
46054;SDS011;31788;6.954;-71.872;2023-02-18T01:15:29;5.97;;;2.20;;
46054;SDS011;31788;6.954;-71.872;2023-02-18T01:17:56;6.05;;;2.30;;
46054;SDS011;31788;6.954;-71.872;2023-02-18T01:20:22;6.22;;;2.15;;
46054;SDS011;31788;6.954;-71.872;2023-02-18T01:22:51;7.65;;;2.30;;
46054;SDS011;31788;6.954;-71.872;2023-02-18T01:25:17;5.45;;;2.28;;
46054;SDS011;31788;6.954;-71.872;2023-02-18T01:27:44;3.88;;;2.20;;
46054;SDS011;31788;6.954;-71.872;2023-02-18T01:30:11;4.82;;;2.20;;
46054;SDS011;31788;6.954;-71.872;2023-02-18T01:32:40;4.20;;;2.30;;
46054;SDS011;31788;6.954;-71.872;2023-02-18T01:35:09;5.80;;;2.40;;
46054;SDS011;31788;6.954;-71.872;2023-02-18T01:37:37;5.07;;;2.42;;
46054;SDS011;31788;6.954;-71.872;2023-02-18T01:40:05;4.37;;;2.10;;
46054;SDS011;31788;6.954;-71.872;2023-02-18T01:42:33;5.25;;;2.30;;
46054;SDS011;31788;6.954;-71.872;2023-02-18T01:50:33;5.80;;;2.50;;
46054;SDS011;31788;6.954;-71.872;2023-02-18T01:53:03;5.30;;;2.60;;
46054;SDS011;31788;6.954;-71.872;2023-02-18T01:55:30;6.53;;;2.70;;
46054;SDS011;31788;6.954;-71.872;2023-02-18T01:57:59;6.78;;;3.03;;
46054;SDS011;31788;6.954;-71.872;2023-02-18T02:00:26;7.07;;;3.30;;
46054;SDS011;31788;6.954;-71.872;2023-02-18T02:02:53;9.13;;;3.33;;
46054;SDS011;31788;6.954;-71.872;2023-02-18T02:05:20;25.95;;;4.28;;
46054;SDS011;31788;6.954;-71.872;2023-02-18T02:07:50;19.42;;;4.30;;
46054;SDS011;31788;6.954;-71.872;2023-02-18T02:10:19;20.50;;;4.93;;
46054;SDS011;31788;6.954;-71.872;2023-02-18T02:12:56;40.10;;;5.45;;
46054;SDS011;31788;6.954;-71.872;2023-02-18T02:15:52;13.15;;;3.10;;
46054;SDS011;31788;6.954;-71.872;2023-02-18T02:18:48;11.60;;;2.72;;
46054;SDS011;31788;6.954;-71.872;2023-02-18T02:21:31;10.30;;;2.63;;
46054;SDS011;31788;6.954;-71.872;2023-02-18T02:35:49;6.43;;;2.50;;
46054;SDS011;31788;6.954;-71.872;2023-02-18T02:38:24;4.83;;;2.03;;
46054;SDS011;31788;6.954;-71.872;2023-02-18T02:41:07;7.03;;;2.10;;
46054;SDS011;31788;6.954;-71.872;2023-02-18T02:47:07;5.88;;;2.70;;
46054;SDS011;31788;6.954;-71.872;2023-02-18T02:54:37;6.32;;;2.50;;
46054;SDS011;31788;6.954;-71.872;2023-02-18T02:57:07;4.63;;;2.60;;
46054;SDS011;31788;6.954;-71.872;2023-02-18T02:59:37;5.68;;;2.70;;
46054;SDS011;31788;6.954;-71.872;2023-02-18T03:02:56;4.60;;;2.40;;
46054;SDS011;31788;6.954;-71.872;2023-02-18T03:05:38;3.60;;;2.40;;
46054;SDS011;31788;6.954;-71.872;2023-02-18T03:08:21;3.80;;;2.53;;
46054;SDS011;31788;6.954;-71.872;2023-02-18T03:11:14;6.97;;;2.67;;
46054;SDS011;31788;6.954;-71.872;2023-02-18T03:19:25;4.93;;;2.55;;
46054;SDS011;31788;6.954;-71.872;2023-02-18T03:24:45;4.97;;;2.38;;
46054;SDS011;31788;6.954;-71.872;2023-02-18T03:27:16;3.38;;;2.28;;
46054;SDS011;31788;6.954;-71.872;2023-02-18T03:32:56;4.57;;;2.00;;
46054;SDS011;31788;6.954;-71.872;2023-02-18T03:35:27;4.20;;;2.10;;
46054;SDS011;31788;6.954;-71.872;2023-02-18T03:37:58;5.15;;;2.20;;
46054;SDS011;31788;6.954;-71.872;2023-02-18T03:40:32;4.40;;;2.50;;
46054;SDS011;31788;6.954;-71.872;2023-02-18T03:42:59;4.67;;;2.20;;
46054;SDS011;31788;6.954;-71.872;2023-02-18T03:45:26;4.40;;;2.20;;
46054;SDS011;31788;6.954;-71.872;2023-02-18T03:47:52;4.65;;;2.20;;
46054;SDS011;31788;6.954;-71.872;2023-02-18T03:50:19;3.60;;;2.05;;
46054;SDS011;31788;6.954;-71.872;2023-02-18T03:52:46;5.00;;;2.30;;
46054;SDS011;31788;6.954;-71.872;2023-02-18T03:55:12;4.40;;;2.28;;
46054;SDS011;31788;6.954;-71.872;2023-02-18T03:57:39;6.25;;;2.20;;
46054;SDS011;31788;6.954;-71.872;2023-02-18T04:00:06;2.83;;;2.17;;
46054;SDS011;31788;6.954;-71.872;2023-02-18T04:02:34;3.40;;;2.00;;
46054;SDS011;31788;6.954;-71.872;2023-02-18T04:05:01;3.00;;;1.83;;
46054;SDS011;31788;6.954;-71.872;2023-02-18T04:07:28;5.40;;;2.38;;
46054;SDS011;31788;6.954;-71.872;2023-02-18T04:09:54;3.13;;;1.90;;
46054;SDS011;31788;6.954;-71.872;2023-02-18T04:12:21;3.40;;;2.30;;
46054;SDS011;31788;6.954;-71.872;2023-02-18T04:14:47;3.53;;;2.20;;
46054;SDS011;31788;6.954;-71.872;2023-02-18T04:17:14;5.00;;;2.28;;
46054;SDS011;31788;6.954;-71.872;2023-02-18T04:19:42;5.18;;;2.40;;
46054;SDS011;31788;6.954;-71.872;2023-02-18T04:22:08;5.18;;;2.25;;
46054;SDS011;31788;6.954;-71.872;2023-02-18T04:24:35;4.70;;;2.40;;
46054;SDS011;31788;6.954;-71.872;2023-02-18T04:27:01;3.05;;;2.13;;
46054;SDS011;31788;6.954;-71.872;2023-02-18T04:29:28;4.82;;;2.30;;
46054;SDS011;31788;6.954;-71.872;2023-02-18T04:31:55;3.87;;;1.97;;
46054;SDS011;31788;6.954;-71.872;2023-02-18T04:34:21;3.03;;;2.22;;
46054;SDS011;31788;6.954;-71.872;2023-02-18T04:36:48;3.58;;;2.03;;
46054;SDS011;31788;6.954;-71.872;2023-02-18T04:39:14;3.63;;;2.33;;
46054;SDS011;31788;6.954;-71.872;2023-02-18T04:41:41;4.10;;;2.17;;
46054;SDS011;31788;6.954;-71.872;2023-02-18T04:44:08;4.10;;;2.30;;
46054;SDS011;31788;6.954;-71.872;2023-02-18T04:46:34;5.03;;;2.60;;
46054;SDS011;31788;6.954;-71.872;2023-02-18T04:49:01;3.33;;;2.40;;
46054;SDS011;31788;6.954;-71.872;2023-02-18T04:51:28;4.07;;;2.30;;
46054;SDS011;31788;6.954;-71.872;2023-02-18T04:53:54;3.03;;;2.10;;
46054;SDS011;31788;6.954;-71.872;2023-02-18T04:56:21;2.88;;;2.20;;
46054;SDS011;31788;6.954;-71.872;2023-02-18T04:58:47;5.57;;;2.47;;
46054;SDS011;31788;6.954;-71.872;2023-02-18T05:01:14;4.32;;;2.17;;
46054;SDS011;31788;6.954;-71.872;2023-02-18T05:03:41;3.78;;;2.25;;
46054;SDS011;31788;6.954;-71.872;2023-02-18T05:06:10;3.90;;;2.25;;
46054;SDS011;31788;6.954;-71.872;2023-02-18T05:08:37;3.80;;;2.30;;
46054;SDS011;31788;6.954;-71.872;2023-02-18T05:11:07;3.15;;;2.30;;
46054;SDS011;31788;6.954;-71.872;2023-02-18T05:13:34;3.22;;;2.00;;
46054;SDS011;31788;6.954;-71.872;2023-02-18T05:16:00;3.67;;;2.27;;
46054;SDS011;31788;6.954;-71.872;2023-02-18T05:18:27;4.50;;;2.20;;
46054;SDS011;31788;6.954;-71.872;2023-02-18T05:20:54;5.40;;;2.20;;
46054;SDS011;31788;6.954;-71.872;2023-02-18T05:23:20;3.72;;;2.13;;
46054;SDS011;31788;6.954;-71.872;2023-02-18T05:25:47;4.18;;;2.20;;
46054;SDS011;31788;6.954;-71.872;2023-02-18T05:28:13;5.00;;;2.20;;
46054;SDS011;31788;6.954;-71.872;2023-02-18T05:30:40;4.88;;;2.40;;
46054;SDS011;31788;6.954;-71.872;2023-02-18T05:33:07;2.85;;;2.08;;
46054;SDS011;31788;6.954;-71.872;2023-02-18T05:35:33;2.93;;;2.07;;
46054;SDS011;31788;6.954;-71.872;2023-02-18T05:38:00;5.78;;;2.53;;
46054;SDS011;31788;6.954;-71.872;2023-02-18T05:40:26;2.72;;;1.88;;
46054;SDS011;31788;6.954;-71.872;2023-02-18T05:42:53;2.73;;;2.20;;
46054;SDS011;31788;6.954;-71.872;2023-02-18T05:45:19;4.75;;;2.28;;
46054;SDS011;31788;6.954;-71.872;2023-02-18T05:47:46;4.57;;;2.40;;
46054;SDS011;31788;6.954;-71.872;2023-02-18T05:50:13;2.97;;;2.10;;
46054;SDS011;31788;6.954;-71.872;2023-02-18T05:52:39;5.20;;;2.38;;
46054;SDS011;31788;6.954;-71.872;2023-02-18T05:55:06;2.65;;;2.10;;
46054;SDS011;31788;6.954;-71.872;2023-02-18T05:57:32;2.78;;;2.00;;
46054;SDS011;31788;6.954;-71.872;2023-02-18T05:59:59;3.65;;;2.05;;
46054;SDS011;31788;6.954;-71.872;2023-02-18T06:02:26;6.25;;;2.20;;
46054;SDS011;31788;6.954;-71.872;2023-02-18T06:04:52;3.60;;;2.20;;
46054;SDS011;31788;6.954;-71.872;2023-02-18T06:07:19;3.55;;;2.40;;
46054;SDS011;31788;6.954;-71.872;2023-02-18T06:09:45;3.95;;;2.20;;
46054;SDS011;31788;6.954;-71.872;2023-02-18T06:12:12;5.07;;;2.37;;
46054;SDS011;31788;6.954;-71.872;2023-02-18T06:14:39;5.57;;;2.40;;
46054;SDS011;31788;6.954;-71.872;2023-02-18T06:17:07;3.45;;;2.22;;
46054;SDS011;31788;6.954;-71.872;2023-02-18T06:19:34;6.45;;;2.30;;
46054;SDS011;31788;6.954;-71.872;2023-02-18T06:22:01;4.75;;;2.38;;
46054;SDS011;31788;6.954;-71.872;2023-02-18T06:24:27;6.27;;;2.40;;
46054;SDS011;31788;6.954;-71.872;2023-02-18T06:26:54;3.45;;;2.45;;
46054;SDS011;31788;6.954;-71.872;2023-02-18T06:29:21;4.47;;;2.40;;
46054;SDS011;31788;6.954;-71.872;2023-02-18T06:31:47;11.60;;;3.30;;
46054;SDS011;31788;6.954;-71.872;2023-02-18T06:34:14;3.35;;;2.42;;
46054;SDS011;31788;6.954;-71.872;2023-02-18T06:36:40;4.13;;;2.33;;
46054;SDS011;31788;6.954;-71.872;2023-02-18T06:39:07;3.90;;;2.42;;
46054;SDS011;31788;6.954;-71.872;2023-02-18T06:41:34;3.45;;;2.33;;
46054;SDS011;31788;6.954;-71.872;2023-02-18T06:44:00;3.65;;;2.70;;
46054;SDS011;31788;6.954;-71.872;2023-02-18T06:46:27;5.38;;;2.50;;
46054;SDS011;31788;6.954;-71.872;2023-02-18T06:48:53;4.20;;;2.85;;
46054;SDS011;31788;6.954;-71.872;2023-02-18T06:51:20;4.25;;;2.38;;
46054;SDS011;31788;6.954;-71.872;2023-02-18T06:53:46;4.97;;;2.53;;
46054;SDS011;31788;6.954;-71.872;2023-02-18T06:56:13;3.67;;;2.55;;
46054;SDS011;31788;6.954;-71.872;2023-02-18T06:58:40;4.10;;;2.63;;
46054;SDS011;31788;6.954;-71.872;2023-02-18T07:01:06;4.63;;;2.40;;
46054;SDS011;31788;6.954;-71.872;2023-02-18T07:03:33;4.60;;;2.70;;
46054;SDS011;31788;6.954;-71.872;2023-02-18T07:06:00;4.57;;;2.53;;
46054;SDS011;31788;6.954;-71.872;2023-02-18T07:08:26;4.68;;;2.40;;
46054;SDS011;31788;6.954;-71.872;2023-02-18T07:10:55;4.40;;;2.67;;
46054;SDS011;31788;6.954;-71.872;2023-02-18T07:13:21;4.50;;;2.47;;
46054;SDS011;31788;6.954;-71.872;2023-02-18T07:15:48;4.55;;;2.60;;
46054;SDS011;31788;6.954;-71.872;2023-02-18T07:18:15;3.40;;;2.20;;
46054;SDS011;31788;6.954;-71.872;2023-02-18T07:20:41;4.32;;;2.60;;
46054;SDS011;31788;6.954;-71.872;2023-02-18T07:23:08;3.10;;;2.40;;
46054;SDS011;31788;6.954;-71.872;2023-02-18T07:25:35;4.90;;;2.47;;
46054;SDS011;31788;6.954;-71.872;2023-02-18T07:28:02;3.67;;;2.58;;
46054;SDS011;31788;6.954;-71.872;2023-02-18T07:30:29;4.70;;;2.42;;
46054;SDS011;31788;6.954;-71.872;2023-02-18T07:32:55;4.10;;;2.60;;
46054;SDS011;31788;6.954;-71.872;2023-02-18T07:35:22;3.17;;;2.23;;
46054;SDS011;31788;6.954;-71.872;2023-02-18T07:37:49;4.38;;;2.75;;
46054;SDS011;31788;6.954;-71.872;2023-02-18T07:40:16;4.00;;;2.50;;
46054;SDS011;31788;6.954;-71.872;2023-02-18T07:42:45;4.43;;;2.65;;
46054;SDS011;31788;6.954;-71.872;2023-02-18T07:45:11;3.30;;;2.50;;
46054;SDS011;31788;6.954;-71.872;2023-02-18T07:47:38;5.00;;;2.95;;
46054;SDS011;31788;6.954;-71.872;2023-02-18T07:50:06;4.32;;;2.72;;
46054;SDS011;31788;6.954;-71.872;2023-02-18T07:52:33;4.07;;;2.70;;
46054;SDS011;31788;6.954;-71.872;2023-02-18T07:55:00;4.60;;;2.40;;
46054;SDS011;31788;6.954;-71.872;2023-02-18T07:57:27;5.18;;;2.50;;
46054;SDS011;31788;6.954;-71.872;2023-02-18T07:59:53;4.95;;;2.55;;
46054;SDS011;31788;6.954;-71.872;2023-02-18T08:02:20;4.10;;;2.40;;
46054;SDS011;31788;6.954;-71.872;2023-02-18T08:04:48;5.20;;;2.40;;
46054;SDS011;31788;6.954;-71.872;2023-02-18T08:07:15;4.45;;;2.60;;
46054;SDS011;31788;6.954;-71.872;2023-02-18T08:09:43;5.68;;;2.67;;
46054;SDS011;31788;6.954;-71.872;2023-02-18T08:12:10;4.75;;;2.60;;
46054;SDS011;31788;6.954;-71.872;2023-02-18T08:14:37;4.13;;;2.65;;
46054;SDS011;31788;6.954;-71.872;2023-02-18T08:17:04;5.22;;;2.53;;
46054;SDS011;31788;6.954;-71.872;2023-02-18T08:19:31;5.65;;;2.88;;
46054;SDS011;31788;6.954;-71.872;2023-02-18T08:21:59;4.20;;;2.95;;
46054;SDS011;31788;6.954;-71.872;2023-02-18T08:24:27;5.85;;;2.88;;
46054;SDS011;31788;6.954;-71.872;2023-02-18T08:26:53;5.00;;;2.90;;
46054;SDS011;31788;6.954;-71.872;2023-02-18T08:29:20;6.63;;;2.70;;
46054;SDS011;31788;6.954;-71.872;2023-02-18T08:31:47;3.38;;;2.53;;
46054;SDS011;31788;6.954;-71.872;2023-02-18T08:34:13;3.78;;;2.40;;
46054;SDS011;31788;6.954;-71.872;2023-02-18T08:36:40;4.28;;;2.90;;
46054;SDS011;31788;6.954;-71.872;2023-02-18T08:39:06;4.87;;;3.00;;
46054;SDS011;31788;6.954;-71.872;2023-02-18T08:41:33;4.13;;;2.80;;
46054;SDS011;31788;6.954;-71.872;2023-02-18T08:43:59;4.45;;;3.08;;
46054;SDS011;31788;6.954;-71.872;2023-02-18T08:46:26;5.25;;;2.80;;
46054;SDS011;31788;6.954;-71.872;2023-02-18T08:48:52;5.53;;;3.20;;
46054;SDS011;31788;6.954;-71.872;2023-02-18T08:51:20;4.20;;;3.00;;
46054;SDS011;31788;6.954;-71.872;2023-02-18T08:53:47;4.78;;;2.83;;
46054;SDS011;31788;6.954;-71.872;2023-02-18T08:56:14;4.65;;;2.80;;
46054;SDS011;31788;6.954;-71.872;2023-02-18T08:58:42;5.07;;;3.10;;
46054;SDS011;31788;6.954;-71.872;2023-02-18T09:01:09;4.68;;;2.67;;
46054;SDS011;31788;6.954;-71.872;2023-02-18T09:03:37;6.93;;;3.25;;
46054;SDS011;31788;6.954;-71.872;2023-02-18T09:06:04;6.82;;;3.30;;
46054;SDS011;31788;6.954;-71.872;2023-02-18T09:08:30;6.60;;;3.58;;
46054;SDS011;31788;6.954;-71.872;2023-02-18T09:10:58;5.45;;;2.90;;
46054;SDS011;31788;6.954;-71.872;2023-02-18T09:13:26;4.53;;;2.90;;
46054;SDS011;31788;6.954;-71.872;2023-02-18T09:15:57;6.10;;;3.22;;
46054;SDS011;31788;6.954;-71.872;2023-02-18T09:18:27;5.10;;;3.15;;
46054;SDS011;31788;6.954;-71.872;2023-02-18T09:20:55;5.63;;;3.20;;
46054;SDS011;31788;6.954;-71.872;2023-02-18T09:23:27;4.38;;;3.17;;
46054;SDS011;31788;6.954;-71.872;2023-02-18T09:25:55;5.13;;;3.27;;
46054;SDS011;31788;6.954;-71.872;2023-02-18T09:28:22;6.70;;;3.10;;
46054;SDS011;31788;6.954;-71.872;2023-02-18T09:30:49;6.28;;;3.20;;
46054;SDS011;31788;6.954;-71.872;2023-02-18T09:33:16;4.00;;;3.05;;
46054;SDS011;31788;6.954;-71.872;2023-02-18T09:35:43;6.20;;;3.37;;
46054;SDS011;31788;6.954;-71.872;2023-02-18T09:38:12;4.53;;;3.17;;
46054;SDS011;31788;6.954;-71.872;2023-02-18T09:40:47;4.50;;;3.30;;
46054;SDS011;31788;6.954;-71.872;2023-02-18T09:43:27;6.63;;;3.90;;
46054;SDS011;31788;6.954;-71.872;2023-02-18T09:46:01;5.40;;;3.35;;
46054;SDS011;31788;6.954;-71.872;2023-02-18T09:48:32;5.30;;;3.70;;
46054;SDS011;31788;6.954;-71.872;2023-02-18T09:51:00;6.15;;;4.10;;
46054;SDS011;31788;6.954;-71.872;2023-02-18T09:53:27;4.88;;;3.72;;
46054;SDS011;31788;6.954;-71.872;2023-02-18T09:55:56;8.13;;;5.22;;
46054;SDS011;31788;6.954;-71.872;2023-02-18T09:58:29;7.70;;;4.70;;
46054;SDS011;31788;6.954;-71.872;2023-02-18T10:03:30;8.30;;;3.90;;
46054;SDS011;31788;6.954;-71.872;2023-02-18T10:08:31;6.75;;;3.40;;
46054;SDS011;31788;6.954;-71.872;2023-02-18T10:11:09;5.18;;;3.03;;
46054;SDS011;31788;6.954;-71.872;2023-02-18T10:13:41;5.28;;;2.92;;
46054;SDS011;31788;6.954;-71.872;2023-02-18T10:16:08;6.50;;;3.00;;
46054;SDS011;31788;6.954;-71.872;2023-02-18T10:18:43;4.78;;;2.95;;
46054;SDS011;31788;6.954;-71.872;2023-02-18T10:24:04;7.40;;;3.20;;
46054;SDS011;31788;6.954;-71.872;2023-02-18T10:26:43;7.47;;;3.47;;
46054;SDS011;31788;6.954;-71.872;2023-02-18T10:29:18;5.13;;;3.20;;
46054;SDS011;31788;6.954;-71.872;2023-02-18T10:31:50;5.10;;;3.60;;
46054;SDS011;31788;6.954;-71.872;2023-02-18T10:47:49;8.60;;;3.97;;
46054;SDS011;31788;6.954;-71.872;2023-02-18T10:50:28;7.32;;;4.10;;
46054;SDS011;31788;6.954;-71.872;2023-02-18T10:53:22;11.13;;;4.10;;
46054;SDS011;31788;6.954;-71.872;2023-02-18T10:55:56;6.70;;;4.28;;
46054;SDS011;31788;6.954;-71.872;2023-02-18T10:58:42;5.65;;;3.58;;
46054;SDS011;31788;6.954;-71.872;2023-02-18T11:01:20;8.45;;;4.22;;
46054;SDS011;31788;6.954;-71.872;2023-02-18T11:03:49;9.17;;;4.40;;
46054;SDS011;31788;6.954;-71.872;2023-02-18T11:06:22;6.55;;;4.03;;
46054;SDS011;31788;6.954;-71.872;2023-02-18T11:08:55;6.95;;;3.70;;
46054;SDS011;31788;6.954;-71.872;2023-02-18T11:11:24;6.25;;;4.00;;
46054;SDS011;31788;6.954;-71.872;2023-02-18T11:13:57;7.27;;;3.77;;
46054;SDS011;31788;6.954;-71.872;2023-02-18T11:16:36;7.68;;;3.83;;
46054;SDS011;31788;6.954;-71.872;2023-02-18T11:19:02;7.75;;;4.00;;
46054;SDS011;31788;6.954;-71.872;2023-02-18T11:21:36;6.38;;;4.13;;
46054;SDS011;31788;6.954;-71.872;2023-02-18T11:24:07;9.90;;;4.47;;
46054;SDS011;31788;6.954;-71.872;2023-02-18T11:26:39;7.90;;;4.10;;
46054;SDS011;31788;6.954;-71.872;2023-02-18T11:29:18;6.07;;;3.95;;
46054;SDS011;31788;6.954;-71.872;2023-02-18T11:31:48;7.32;;;4.13;;
46054;SDS011;31788;6.954;-71.872;2023-02-18T11:34:17;8.18;;;3.97;;
46054;SDS011;31788;6.954;-71.872;2023-02-18T11:36:47;9.48;;;4.40;;
46054;SDS011;31788;6.954;-71.872;2023-02-18T11:39:20;7.25;;;4.30;;
46054;SDS011;31788;6.954;-71.872;2023-02-18T11:47:30;9.80;;;4.43;;
46054;SDS011;31788;6.954;-71.872;2023-02-18T11:50:01;8.23;;;4.72;;
46054;SDS011;31788;6.954;-71.872;2023-02-18T11:52:48;7.95;;;4.30;;
46054;SDS011;31788;6.954;-71.872;2023-02-18T11:55:18;7.70;;;4.00;;
46054;SDS011;31788;6.954;-71.872;2023-02-18T12:02:50;8.38;;;4.63;;
46054;SDS011;31788;6.954;-71.872;2023-02-18T12:05:22;9.20;;;4.60;;
46054;SDS011;31788;6.954;-71.872;2023-02-18T12:10:31;7.60;;;4.50;;
46054;SDS011;31788;6.954;-71.872;2023-02-18T12:15:45;6.30;;;4.40;;
46054;SDS011;31788;6.954;-71.872;2023-02-18T12:21:07;7.32;;;4.82;;
46054;SDS011;31788;6.954;-71.872;2023-02-18T12:24:02;7.50;;;4.43;;
46054;SDS011;31788;6.954;-71.872;2023-02-18T12:26:56;7.22;;;4.55;;
46054;SDS011;31788;6.954;-71.872;2023-02-18T12:38:32;9.13;;;5.53;;
46054;SDS011;31788;6.954;-71.872;2023-02-18T12:43:54;10.43;;;5.18;;
46054;SDS011;31788;6.954;-71.872;2023-02-18T12:46:56;10.65;;;5.72;;
46054;SDS011;31788;6.954;-71.872;2023-02-18T12:52:08;10.18;;;6.32;;
46054;SDS011;31788;6.954;-71.872;2023-02-18T12:57:41;12.13;;;7.18;;
46054;SDS011;31788;6.954;-71.872;2023-02-18T13:05:52;11.18;;;6.32;;
46054;SDS011;31788;6.954;-71.872;2023-02-18T13:08:53;10.47;;;6.13;;
46054;SDS011;31788;6.954;-71.872;2023-02-18T13:14:00;10.50;;;6.32;;
46054;SDS011;31788;6.954;-71.872;2023-02-18T13:16:42;11.50;;;6.10;;
46054;SDS011;31788;6.954;-71.872;2023-02-18T13:19:20;12.45;;;6.63;;
46054;SDS011;31788;6.954;-71.872;2023-02-18T13:22:01;11.23;;;7.10;;
46054;SDS011;31788;6.954;-71.872;2023-02-18T13:24:41;10.20;;;6.57;;
46054;SDS011;31788;6.954;-71.872;2023-02-18T13:32:46;12.52;;;7.90;;
46054;SDS011;31788;6.954;-71.872;2023-02-18T13:35:42;11.27;;;7.68;;
46054;SDS011;31788;6.954;-71.872;2023-02-18T13:40:54;14.52;;;8.77;;
46054;SDS011;31788;6.954;-71.872;2023-02-18T13:48:47;12.00;;;8.82;;
46054;SDS011;31788;6.954;-71.872;2023-02-18T13:51:17;13.95;;;8.98;;
46054;SDS011;31788;6.954;-71.872;2023-02-18T13:56:39;14.18;;;9.98;;
46054;SDS011;31788;6.954;-71.872;2023-02-18T13:59:44;12.82;;;9.10;;
46054;SDS011;31788;6.954;-71.872;2023-02-18T14:02:32;12.90;;;9.50;;
46054;SDS011;31788;6.954;-71.872;2023-02-18T14:42:46;12.00;;;8.05;;
46054;SDS011;31788;6.954;-71.872;2023-02-18T14:45:40;12.07;;;7.57;;
46054;SDS011;31788;6.954;-71.872;2023-02-18T14:48:36;12.93;;;7.73;;
46054;SDS011;31788;6.954;-71.872;2023-02-18T14:51:24;10.80;;;7.45;;
46054;SDS011;31788;6.954;-71.872;2023-02-18T14:53:54;9.93;;;7.63;;
46054;SDS011;31788;6.954;-71.872;2023-02-18T14:56:20;11.50;;;7.32;;
46054;SDS011;31788;6.954;-71.872;2023-02-18T14:58:49;9.65;;;7.03;;
46054;SDS011;31788;6.954;-71.872;2023-02-18T15:03:52;9.77;;;6.50;;
46054;SDS011;31788;6.954;-71.872;2023-02-18T15:06:23;11.47;;;7.73;;
46054;SDS011;31788;6.954;-71.872;2023-02-18T15:09:00;10.67;;;6.57;;
46054;SDS011;31788;6.954;-71.872;2023-02-18T15:11:41;10.07;;;6.65;;
46054;SDS011;31788;6.954;-71.872;2023-02-18T15:14:14;11.25;;;6.72;;
46054;SDS011;31788;6.954;-71.872;2023-02-18T15:16:44;10.68;;;7.10;;
46054;SDS011;31788;6.954;-71.872;2023-02-18T15:19:14;8.68;;;6.55;;
46054;SDS011;31788;6.954;-71.872;2023-02-18T15:21:44;8.75;;;6.43;;
46054;SDS011;31788;6.954;-71.872;2023-02-18T15:27:13;11.55;;;6.75;;
46054;SDS011;31788;6.954;-71.872;2023-02-18T15:29:49;10.23;;;6.50;;
46054;SDS011;31788;6.954;-71.872;2023-02-18T15:32:23;10.48;;;6.60;;
46054;SDS011;31788;6.954;-71.872;2023-02-18T15:34:55;9.23;;;5.93;;
46054;SDS011;31788;6.954;-71.872;2023-02-18T15:37:28;9.00;;;6.15;;
46054;SDS011;31788;6.954;-71.872;2023-02-18T15:39:55;7.82;;;5.55;;
46054;SDS011;31788;6.954;-71.872;2023-02-18T15:42:26;9.43;;;5.90;;
46054;SDS011;31788;6.954;-71.872;2023-02-18T15:47:52;8.52;;;5.50;;
46054;SDS011;31788;6.954;-71.872;2023-02-18T15:50:25;8.35;;;5.38;;
46054;SDS011;31788;6.954;-71.872;2023-02-18T15:53:18;7.73;;;5.40;;
46054;SDS011;31788;6.954;-71.872;2023-02-18T15:55:46;9.18;;;5.57;;
46054;SDS011;31788;6.954;-71.872;2023-02-18T15:58:16;8.43;;;5.28;;
46054;SDS011;31788;6.954;-71.872;2023-02-18T16:00:51;8.77;;;5.25;;
46054;SDS011;31788;6.954;-71.872;2023-02-18T16:03:22;7.63;;;5.32;;
46054;SDS011;31788;6.954;-71.872;2023-02-18T16:05:49;9.20;;;5.60;;
46054;SDS011;31788;6.954;-71.872;2023-02-18T16:08:23;8.27;;;5.25;;
46054;SDS011;31788;6.954;-71.872;2023-02-18T16:11:02;8.13;;;5.05;;
46054;SDS011;31788;6.954;-71.872;2023-02-18T16:13:33;10.57;;;5.40;;
46054;SDS011;31788;6.954;-71.872;2023-02-18T16:16:01;8.88;;;5.43;;
46054;SDS011;31788;6.954;-71.872;2023-02-18T16:18:35;7.80;;;5.10;;
46054;SDS011;31788;6.954;-71.872;2023-02-18T16:21:05;10.38;;;5.47;;
46054;SDS011;31788;6.954;-71.872;2023-02-18T16:23:52;8.43;;;5.30;;
46054;SDS011;31788;6.954;-71.872;2023-02-18T16:26:28;8.60;;;5.68;;
46054;SDS011;31788;6.954;-71.872;2023-02-18T16:29:04;9.68;;;5.72;;
46054;SDS011;31788;6.954;-71.872;2023-02-18T16:31:37;8.18;;;5.85;;
46054;SDS011;31788;6.954;-71.872;2023-02-18T16:34:04;9.73;;;6.18;;
46054;SDS011;31788;6.954;-71.872;2023-02-18T16:36:30;11.27;;;8.45;;
46054;SDS011;31788;6.954;-71.872;2023-02-18T16:38:57;18.48;;;12.45;;
46054;SDS011;31788;6.954;-71.872;2023-02-18T16:41:26;12.35;;;8.18;;
46054;SDS011;31788;6.954;-71.872;2023-02-18T16:43:53;11.93;;;7.03;;
46054;SDS011;31788;6.954;-71.872;2023-02-18T16:46:21;13.00;;;8.60;;
46054;SDS011;31788;6.954;-71.872;2023-02-18T16:48:49;14.88;;;8.80;;
46054;SDS011;31788;6.954;-71.872;2023-02-18T16:51:39;16.13;;;10.95;;
46054;SDS011;31788;6.954;-71.872;2023-02-18T16:54:10;11.60;;;7.90;;
46054;SDS011;31788;6.954;-71.872;2023-02-18T16:56:37;12.70;;;8.55;;
46054;SDS011;31788;6.954;-71.872;2023-02-18T16:59:05;12.68;;;8.30;;
46054;SDS011;31788;6.954;-71.872;2023-02-18T17:01:35;11.50;;;7.63;;
46054;SDS011;31788;6.954;-71.872;2023-02-18T17:04:12;10.93;;;8.00;;
46054;SDS011;31788;6.954;-71.872;2023-02-18T17:06:40;12.10;;;7.22;;
46054;SDS011;31788;6.954;-71.872;2023-02-18T17:09:12;11.50;;;7.97;;
46054;SDS011;31788;6.954;-71.872;2023-02-18T17:11:42;10.90;;;7.80;;
46054;SDS011;31788;6.954;-71.872;2023-02-18T17:14:15;10.35;;;7.53;;
46054;SDS011;31788;6.954;-71.872;2023-02-18T17:16:44;9.27;;;6.95;;
46054;SDS011;31788;6.954;-71.872;2023-02-18T17:19:11;9.90;;;8.32;;
46054;SDS011;31788;6.954;-71.872;2023-02-18T17:21:39;11.00;;;7.18;;
46054;SDS011;31788;6.954;-71.872;2023-02-18T17:24:06;10.73;;;8.45;;
46054;SDS011;31788;6.954;-71.872;2023-02-18T17:26:37;10.60;;;8.23;;
46054;SDS011;31788;6.954;-71.872;2023-02-18T17:29:03;10.60;;;8.02;;
46054;SDS011;31788;6.954;-71.872;2023-02-18T17:31:34;10.65;;;7.50;;
46054;SDS011;31788;6.954;-71.872;2023-02-18T17:34:09;9.80;;;7.43;;
46054;SDS011;31788;6.954;-71.872;2023-02-18T17:36:40;10.30;;;7.80;;